DAL788 KFLL-KMDW
Flight info
| Callsign | DAL788 |
|---|---|
| Flight time | N/A |
| Altitude | 36000 |
| Route | HROCK2 KPASA Q118 JAMIZ/N0455F380 Q118 THRSR Q79 IIU DROSE FISSK7 |
| Aircraft | A320/M-SDE3FGHIRWY/LB1 |
Departure
| Time | 2026-05-04 21:31 |
|---|---|
| Airport | Fort Lauderdale Hollywood International Airport (KFLL) |
Arrival
| Time | N/A |
|---|---|
| Airport | Chicago Midway International Airport (KMDW) |
| Time | Latitude | Longitude | Altitude | Speed | Heading |
|---|---|---|---|---|---|
| 2026-05-04 21:00 | 26.07343 | -80.14259 | 16 ft | 0 kts | 270° |
| 2026-05-04 21:21 | 26.07343 | -80.14234 | 16 ft | 4 kts | 277° |
| 2026-05-04 21:22 | 26.07337 | -80.14206 | 21 ft | 4 kts | 302° |
| 2026-05-04 21:22 | 26.07321 | -80.14191 | 18 ft | 2 kts | 359° |
| 2026-05-04 21:22 | 26.07319 | -80.14191 | 18 ft | 0 kts | 0° |
| 2026-05-04 21:24 | 26.07321 | -80.14191 | 16 ft | 2 kts | 0° |
| 2026-05-04 21:24 | 26.07338 | -80.14191 | 16 ft | 2 kts | 0° |
| 2026-05-04 21:25 | 26.07407 | -80.14190 | 16 ft | 12 kts | 0° |
| 2026-05-04 21:25 | 26.07476 | -80.14208 | 16 ft | 9 kts | 316° |
| 2026-05-04 21:25 | 26.07487 | -80.14318 | 16 ft | 15 kts | 269° |
| 2026-05-04 21:25 | 26.07486 | -80.14422 | 16 ft | 13 kts | 270° |
| 2026-05-04 21:26 | 26.07488 | -80.14585 | 16 ft | 22 kts | 270° |
| 2026-05-04 21:26 | 26.07489 | -80.14738 | 16 ft | 18 kts | 270° |
| 2026-05-04 21:26 | 26.07489 | -80.14858 | 16 ft | 13 kts | 269° |
| 2026-05-04 21:26 | 26.07488 | -80.14945 | 16 ft | 9 kts | 270° |
| 2026-05-04 21:27 | 26.07488 | -80.15096 | 16 ft | 29 kts | 270° |
| 2026-05-04 21:27 | 26.07490 | -80.15310 | 16 ft | 26 kts | 270° |
| 2026-05-04 21:27 | 26.07492 | -80.15493 | 16 ft | 21 kts | 270° |
| 2026-05-04 21:27 | 26.07493 | -80.15640 | 16 ft | 17 kts | 270° |
| 2026-05-04 21:28 | 26.07493 | -80.15822 | 16 ft | 31 kts | 270° |
| 2026-05-04 21:28 | 26.07494 | -80.16057 | 16 ft | 30 kts | 270° |
| 2026-05-04 21:28 | 26.07495 | -80.16287 | 16 ft | 30 kts | 270° |
| 2026-05-04 21:28 | 26.07495 | -80.16512 | 16 ft | 28 kts | 269° |
| 2026-05-04 21:29 | 26.07519 | -80.16641 | 17 ft | 11 kts | 324° |
| 2026-05-04 21:29 | 26.07587 | -80.16646 | 16 ft | 8 kts | 0° |
| 2026-05-04 21:29 | 26.07634 | -80.16646 | 17 ft | 6 kts | 0° |
| 2026-05-04 21:29 | 26.07686 | -80.16629 | 18 ft | 8 kts | 46° |
| 2026-05-04 21:30 | 26.07695 | -80.16586 | 19 ft | 0 kts | 87° |
| 2026-05-04 21:30 | 26.07695 | -80.16565 | 18 ft | 18 kts | 88° |
| 2026-05-04 21:30 | 26.07696 | -80.16156 | 19 ft | 85 kts | 90° |
| 2026-05-04 21:31 | 26.07683 | -80.14166 | 454 ft | 147 kts | 88° |
| 2026-05-04 21:31 | 26.07697 | -80.13015 | 1080 ft | 153 kts | 83° |
| 2026-05-04 21:31 | 26.07732 | -80.11812 | 1802 ft | 161 kts | 84° |
| 2026-05-04 21:32 | 26.07789 | -80.10459 | 2188 ft | 188 kts | 84° |
| 2026-05-04 21:32 | 26.08161 | -80.08995 | 2704 ft | 208 kts | 60° |
| 2026-05-04 21:32 | 26.09099 | -80.07651 | 3290 ft | 234 kts | 43° |
| 2026-05-04 21:32 | 26.10488 | -80.06576 | 3832 ft | 253 kts | 27° |
| 2026-05-04 21:33 | 26.12162 | -80.05873 | 4160 ft | 264 kts | 21° |
| 2026-05-04 21:33 | 26.13902 | -80.05212 | 5299 ft | 264 kts | 15° |
| 2026-05-04 21:33 | 26.15746 | -80.04967 | 6244 ft | 271 kts | 355° |
| 2026-05-04 21:33 | 26.17597 | -80.05399 | 7202 ft | 274 kts | 337° |
| 2026-05-04 21:34 | 26.19398 | -80.06109 | 8148 ft | 278 kts | 336° |
| 2026-05-04 21:34 | 26.21128 | -80.07068 | 8980 ft | 278 kts | 321° |
| 2026-05-04 21:34 | 26.22531 | -80.08531 | 9861 ft | 276 kts | 304° |
| 2026-05-04 21:34 | 26.23493 | -80.10366 | 10631 ft | 275 kts | 289° |
| 2026-05-04 21:35 | 26.24220 | -80.12415 | 10952 ft | 296 kts | 289° |
| 2026-05-04 21:35 | 26.25002 | -80.14640 | 11185 ft | 319 kts | 289° |
| 2026-05-04 21:35 | 26.25743 | -80.17012 | 11698 ft | 328 kts | 284° |
| 2026-05-04 21:35 | 26.26395 | -80.19463 | 12413 ft | 332 kts | 284° |
| 2026-05-04 21:36 | 26.27059 | -80.21943 | 13152 ft | 335 kts | 284° |
| 2026-05-04 21:36 | 26.27719 | -80.24406 | 13864 ft | 337 kts | 284° |
| 2026-05-04 21:36 | 26.28391 | -80.26926 | 14493 ft | 340 kts | 284° |
| 2026-05-04 21:36 | 26.29064 | -80.29452 | 15114 ft | 342 kts | 284° |
| 2026-05-04 21:37 | 26.29744 | -80.32007 | 15737 ft | 344 kts | 284° |
| 2026-05-04 21:37 | 26.30423 | -80.34574 | 16354 ft | 347 kts | 284° |
| 2026-05-04 21:37 | 26.31108 | -80.37160 | 16967 ft | 349 kts | 284° |
| 2026-05-04 21:37 | 26.31800 | -80.39769 | 17579 ft | 352 kts | 284° |
| 2026-05-04 21:38 | 26.32496 | -80.42391 | 18190 ft | 354 kts | 284° |
| 2026-05-04 21:38 | 26.33194 | -80.45035 | 18725 ft | 357 kts | 284° |
| 2026-05-04 21:38 | 26.33898 | -80.47704 | 19239 ft | 360 kts | 284° |
| 2026-05-04 21:38 | 26.34608 | -80.50387 | 19784 ft | 362 kts | 284° |
| 2026-05-04 21:39 | 26.35315 | -80.53063 | 20318 ft | 365 kts | 284° |
| 2026-05-04 21:39 | 26.36029 | -80.55783 | 20870 ft | 367 kts | 284° |
| 2026-05-04 21:39 | 26.36750 | -80.58527 | 21409 ft | 369 kts | 284° |
| 2026-05-04 21:39 | 26.37476 | -80.61284 | 21919 ft | 372 kts | 284° |
| 2026-05-04 21:40 | 26.38207 | -80.64058 | 22434 ft | 374 kts | 284° |
| 2026-05-04 21:40 | 26.38944 | -80.66853 | 22923 ft | 377 kts | 284° |
| 2026-05-04 21:40 | 26.39718 | -80.69653 | 23388 ft | 380 kts | 288° |
| 2026-05-04 21:40 | 26.40886 | -80.72325 | 23811 ft | 388 kts | 298° |
| 2026-05-04 21:41 | 26.42542 | -80.74732 | 24201 ft | 396 kts | 308° |
| 2026-05-04 21:41 | 26.44420 | -80.76985 | 24592 ft | 397 kts | 308° |
| 2026-05-04 21:41 | 26.46301 | -80.79252 | 24975 ft | 399 kts | 308° |
| 2026-05-04 21:41 | 26.48186 | -80.81532 | 25363 ft | 401 kts | 307° |
| 2026-05-04 21:42 | 26.50079 | -80.83823 | 25735 ft | 402 kts | 308° |
| 2026-05-04 21:42 | 26.52157 | -80.85955 | 26105 ft | 409 kts | 315° |
| 2026-05-04 21:42 | 26.54340 | -80.87945 | 26466 ft | 411 kts | 315° |
| 2026-05-04 21:42 | 26.56563 | -80.89965 | 26835 ft | 413 kts | 315° |
| 2026-05-04 21:43 | 26.58798 | -80.91991 | 27231 ft | 414 kts | 315° |
| 2026-05-04 21:43 | 26.61040 | -80.94021 | 27612 ft | 415 kts | 315° |
| 2026-05-04 21:43 | 26.63290 | -80.96061 | 27961 ft | 417 kts | 315° |
| 2026-05-04 21:43 | 26.65547 | -80.98112 | 28294 ft | 419 kts | 315° |
| 2026-05-04 21:44 | 26.67810 | -81.00170 | 28604 ft | 420 kts | 315° |
| 2026-05-04 21:44 | 26.70089 | -81.02239 | 28910 ft | 422 kts | 315° |
| 2026-05-04 21:44 | 26.72371 | -81.04314 | 29210 ft | 423 kts | 315° |
| 2026-05-04 21:44 | 26.74658 | -81.06399 | 29494 ft | 425 kts | 315° |
| 2026-05-04 21:45 | 26.76952 | -81.08493 | 29772 ft | 426 kts | 315° |
| 2026-05-04 21:45 | 26.79259 | -81.10599 | 30035 ft | 428 kts | 315° |
| 2026-05-04 21:45 | 26.81566 | -81.12709 | 30251 ft | 429 kts | 315° |
| 2026-05-04 21:45 | 26.83848 | -81.14797 | 30520 ft | 429 kts | 315° |
| 2026-05-04 21:46 | 26.86156 | -81.16907 | 30804 ft | 428 kts | 315° |
| 2026-05-04 21:46 | 26.88460 | -81.19016 | 31079 ft | 428 kts | 314° |
| 2026-05-04 21:46 | 26.90761 | -81.21125 | 31393 ft | 427 kts | 314° |
| 2026-05-04 21:46 | 26.93056 | -81.23227 | 31698 ft | 426 kts | 314° |
| 2026-05-04 21:47 | 26.95348 | -81.25327 | 31978 ft | 426 kts | 314° |
| 2026-05-04 21:47 | 26.97640 | -81.27426 | 32244 ft | 426 kts | 314° |
| 2026-05-04 21:47 | 26.99932 | -81.29526 | 32517 ft | 426 kts | 314° |
| 2026-05-04 21:47 | 27.02229 | -81.31633 | 32782 ft | 426 kts | 314° |
| 2026-05-04 21:48 | 27.04571 | -81.33678 | 33049 ft | 430 kts | 319° |
| 2026-05-04 21:48 | 27.07163 | -81.35405 | 33312 ft | 435 kts | 323° |
| 2026-05-04 21:48 | 27.09798 | -81.37074 | 33576 ft | 435 kts | 323° |
| 2026-05-04 21:48 | 27.12437 | -81.38741 | 33846 ft | 435 kts | 323° |
| 2026-05-04 21:49 | 27.15077 | -81.40410 | 34101 ft | 435 kts | 323° |
| 2026-05-04 21:49 | 27.17714 | -81.42080 | 34346 ft | 435 kts | 323° |
| 2026-05-04 21:49 | 27.20346 | -81.43750 | 34618 ft | 434 kts | 323° |
| 2026-05-04 21:49 | 27.22970 | -81.45417 | 34937 ft | 433 kts | 323° |
| 2026-05-04 21:50 | 27.25584 | -81.47080 | 35211 ft | 431 kts | 323° |
| 2026-05-04 21:50 | 27.28190 | -81.48739 | 35464 ft | 430 kts | 323° |
| 2026-05-04 21:50 | 27.30785 | -81.50396 | 35710 ft | 429 kts | 323° |
| 2026-05-04 21:50 | 27.33392 | -81.52036 | 35942 ft | 430 kts | 326° |
| 2026-05-04 21:51 | 27.36146 | -81.53406 | 36025 ft | 435 kts | 330° |
| 2026-05-04 21:51 | 27.41752 | -81.55956 | 36035 ft | 434 kts | 330° |
| 2026-05-04 21:52 | 27.47358 | -81.58494 | 36041 ft | 434 kts | 330° |
| 2026-05-04 21:52 | 27.52963 | -81.61047 | 36041 ft | 434 kts | 330° |
| 2026-05-04 21:53 | 27.58557 | -81.63607 | 36045 ft | 434 kts | 330° |
| 2026-05-04 21:53 | 27.64117 | -81.66147 | 36047 ft | 433 kts | 330° |
| 2026-05-04 21:54 | 27.69705 | -81.68701 | 36060 ft | 432 kts | 330° |
| 2026-05-04 21:54 | 27.75273 | -81.71251 | 36063 ft | 431 kts | 330° |
| 2026-05-04 21:55 | 27.80799 | -81.73787 | 36056 ft | 430 kts | 330° |
| 2026-05-04 21:55 | 27.86342 | -81.76333 | 36078 ft | 430 kts | 331° |
| 2026-05-04 21:56 | 27.91882 | -81.78881 | 36063 ft | 430 kts | 331° |
| 2026-05-04 21:56 | 27.97419 | -81.81434 | 36050 ft | 430 kts | 331° |
| 2026-05-04 21:57 | 28.02959 | -81.83979 | 36066 ft | 430 kts | 331° |
| 2026-05-04 21:57 | 28.08495 | -81.86531 | 36058 ft | 429 kts | 330° |
| 2026-05-04 21:58 | 28.14039 | -81.89096 | 36068 ft | 429 kts | 331° |
| 2026-05-04 21:58 | 28.19319 | -81.92092 | 36058 ft | 419 kts | 319° |
| 2026-05-04 21:59 | 28.24067 | -81.95847 | 36048 ft | 419 kts | 319° |
| 2026-05-04 21:59 | 28.28847 | -81.99627 | 36039 ft | 419 kts | 319° |
| 2026-05-04 22:00 | 28.33626 | -82.03418 | 36033 ft | 419 kts | 319° |
| 2026-05-04 22:00 | 28.38404 | -82.07206 | 36034 ft | 419 kts | 319° |
| 2026-05-04 22:01 | 28.43184 | -82.10992 | 36033 ft | 419 kts | 319° |
| 2026-05-04 22:01 | 28.47964 | -82.14790 | 36055 ft | 419 kts | 319° |
| 2026-05-04 22:02 | 28.52737 | -82.18586 | 36041 ft | 419 kts | 319° |
| 2026-05-04 22:02 | 28.56701 | -82.21743 | 36038 ft | 419 kts | 319° |
| 2026-05-04 22:03 | 28.61473 | -82.25545 | 36039 ft | 419 kts | 319° |
| 2026-05-04 22:03 | 28.66245 | -82.29359 | 36037 ft | 419 kts | 319° |
| 2026-05-04 22:04 | 28.71023 | -82.33178 | 36037 ft | 419 kts | 319° |
| 2026-05-04 22:04 | 28.75796 | -82.36996 | 36072 ft | 419 kts | 319° |
| 2026-05-04 22:05 | 28.80560 | -82.40812 | 36064 ft | 418 kts | 320° |
| 2026-05-04 22:05 | 28.85286 | -82.44602 | 36062 ft | 417 kts | 320° |
| 2026-05-04 22:06 | 28.90033 | -82.48413 | 36058 ft | 417 kts | 320° |
| 2026-05-04 22:06 | 28.94776 | -82.52223 | 36052 ft | 417 kts | 320° |
| 2026-05-04 22:07 | 28.99527 | -82.56041 | 36051 ft | 417 kts | 320° |
| 2026-05-04 22:07 | 29.04261 | -82.59857 | 36046 ft | 416 kts | 319° |
| 2026-05-04 22:08 | 29.08990 | -82.63675 | 36058 ft | 416 kts | 319° |
| 2026-05-04 22:08 | 29.13714 | -82.67495 | 36051 ft | 416 kts | 319° |
| 2026-05-04 22:09 | 29.18441 | -82.71317 | 36049 ft | 416 kts | 319° |
| 2026-05-04 22:09 | 29.23163 | -82.75136 | 36045 ft | 416 kts | 319° |
| 2026-05-04 22:10 | 29.27886 | -82.78962 | 36046 ft | 415 kts | 319° |
| 2026-05-04 22:10 | 29.32599 | -82.82780 | 36051 ft | 415 kts | 319° |
| 2026-05-04 22:11 | 29.37309 | -82.86600 | 36082 ft | 414 kts | 319° |
| 2026-05-04 22:11 | 29.41964 | -82.90384 | 36074 ft | 413 kts | 319° |
| 2026-05-04 22:12 | 29.46645 | -82.94193 | 36066 ft | 412 kts | 319° |
| 2026-05-04 22:12 | 29.51349 | -82.97938 | 36059 ft | 415 kts | 324° |
| 2026-05-04 22:13 | 29.56677 | -83.00674 | 36056 ft | 421 kts | 331° |
| 2026-05-04 22:13 | 29.62087 | -83.03240 | 36045 ft | 421 kts | 331° |
| 2026-05-04 22:14 | 29.67493 | -83.05809 | 36079 ft | 420 kts | 330° |
| 2026-05-04 22:14 | 29.72895 | -83.08381 | 36070 ft | 419 kts | 330° |
| 2026-05-04 22:15 | 29.78276 | -83.10962 | 36069 ft | 419 kts | 330° |
| 2026-05-04 22:15 | 29.83661 | -83.13538 | 36067 ft | 419 kts | 330° |
| 2026-05-04 22:16 | 29.89037 | -83.16111 | 36074 ft | 418 kts | 330° |
| 2026-05-04 22:16 | 29.94375 | -83.18672 | 36124 ft | 416 kts | 330° |
| 2026-05-04 22:17 | 29.99682 | -83.21210 | 36052 ft | 411 kts | 330° |
| 2026-05-04 22:17 | 30.04957 | -83.23746 | 36050 ft | 410 kts | 330° |
| 2026-05-04 22:18 | 30.10230 | -83.26300 | 36050 ft | 411 kts | 330° |
| 2026-05-04 22:18 | 30.15524 | -83.28850 | 36053 ft | 411 kts | 330° |
| 2026-05-04 22:19 | 30.20771 | -83.31376 | 36051 ft | 411 kts | 330° |
| 2026-05-04 22:19 | 30.26043 | -83.33917 | 36091 ft | 411 kts | 330° |
| 2026-05-04 22:20 | 30.31330 | -83.36469 | 36087 ft | 410 kts | 329° |
| 2026-05-04 22:20 | 30.36586 | -83.39018 | 36084 ft | 410 kts | 329° |
| 2026-05-04 22:21 | 30.41852 | -83.41567 | 36079 ft | 410 kts | 330° |
| 2026-05-04 22:21 | 30.47086 | -83.44096 | 36079 ft | 410 kts | 329° |
| 2026-05-04 22:22 | 30.52347 | -83.46651 | 36070 ft | 409 kts | 329° |
| 2026-05-04 22:22 | 30.57600 | -83.49209 | 36068 ft | 409 kts | 329° |
| 2026-05-04 22:23 | 30.62852 | -83.51763 | 36075 ft | 409 kts | 329° |
| 2026-05-04 22:23 | 30.68108 | -83.54322 | 36074 ft | 409 kts | 330° |
| 2026-05-04 22:24 | 30.73354 | -83.56867 | 36079 ft | 408 kts | 330° |
| 2026-05-04 22:24 | 30.78550 | -83.59398 | 36081 ft | 407 kts | 330° |
| 2026-05-04 22:25 | 30.83765 | -83.61949 | 36072 ft | 405 kts | 329° |
| 2026-05-04 22:25 | 30.88953 | -83.64495 | 36064 ft | 404 kts | 329° |
| 2026-05-04 22:26 | 30.94144 | -83.67044 | 36055 ft | 405 kts | 329° |
| 2026-05-04 22:26 | 30.99338 | -83.69585 | 36052 ft | 405 kts | 329° |
| 2026-05-04 22:27 | 31.04539 | -83.72133 | 36050 ft | 405 kts | 329° |
| 2026-05-04 22:27 | 31.09734 | -83.74697 | 36093 ft | 405 kts | 329° |
| 2026-05-04 22:28 | 31.14922 | -83.77259 | 36083 ft | 405 kts | 329° |
| 2026-05-04 22:28 | 31.18326 | -83.78935 | 36078 ft | 405 kts | 329° |